Time;durP1;ratioP1;P1;durP2;ratioP2;P2;SDS_P1;SDS_P2;PMS_P1;PMS_P2;Temp;Humidity;BMP_temperature;BMP_pressure;BME280_temperature;BME280_humidity;BME280_pressure;Samples;Min_cycle;Max_cycle;Signal;HPM_P1;HPM_P2
2023/08/25 00:01:23;;;;;;;1.50;0.90;;;20.80;98.20;;;;;;4874201;29;21137;-78
2023/08/25 00:03:50;;;;;;;1.50;1.00;;;20.80;98.20;;;;;;4884969;29;20467;-79
2023/08/25 00:06:17;;;;;;;1.50;0.90;;;20.80;98.20;;;;;;4871026;29;21054;-79
2023/08/25 00:08:46;;;;;;;1.50;0.90;;;20.80;98.20;;;;;;4884836;29;20494;-79
2023/08/25 00:11:13;;;;;;;1.50;0.90;;;20.80;98.20;;;;;;4870302;29;20481;-79
2023/08/25 00:13:41;;;;;;;1.50;0.90;;;20.70;98.20;;;;;;4889298;29;20489;-78
2023/08/25 00:16:08;;;;;;;1.50;0.90;;;20.70;98.20;;;;;;4869515;29;21254;-79
2023/08/25 00:18:36;;;;;;;1.50;0.90;;;20.70;98.20;;;;;;4888952;29;20463;-79
2023/08/25 00:21:02;;;;;;;1.50;0.90;;;20.70;98.20;;;;;;4866580;29;20514;-80
2023/08/25 00:23:29;;;;;;;1.50;0.90;;;20.60;98.20;;;;;;4891872;29;20557;-80
2023/08/25 00:25:57;;;;;;;1.50;0.90;;;20.60;98.20;;;;;;4867062;29;20478;-80
2023/08/25 00:28:24;;;;;;;1.50;0.90;;;20.60;98.20;;;;;;4890497;29;20494;-79
2023/08/25 00:30:52;;;;;;;1.50;1.10;;;20.60;98.20;;;;;;4864981;29;21217;-80
2023/08/25 00:33:18;;;;;;;1.50;0.90;;;20.60;98.20;;;;;;4894023;29;20845;-80
2023/08/25 00:35:45;;;;;;;1.50;0.90;;;20.60;98.20;;;;;;4874368;29;20471;-80
2023/08/25 00:38:13;;;;;;;1.50;0.90;;;20.60;98.20;;;;;;4867958;29;20509;-80
2023/08/25 00:40:40;;;;;;;1.50;0.90;;;20.60;98.20;;;;;;4873319;29;21092;-80
2023/08/25 00:43:08;;;;;;;1.50;0.90;;;20.60;98.20;;;;;;4884682;29;20489;-80
2023/08/25 00:45:39;;;;;;;1.50;0.90;;;20.60;98.20;;;;;;4874626;29;20550;-80
2023/08/25 00:48:07;;;;;;;1.50;0.90;;;20.60;98.20;;;;;;4885519;29;20486;-80
2023/08/25 00:50:35;;;;;;;1.50;0.90;;;20.60;98.20;;;;;;4873587;29;20490;-80
2023/08/25 00:53:02;;;;;;;1.50;0.90;;;20.60;98.20;;;;;;4884693;29;20492;-81
2023/08/25 00:55:29;;;;;;;1.50;0.90;;;20.60;98.20;;;;;;4875268;29;20467;-80
2023/08/25 00:57:57;;;;;;;1.50;0.90;;;20.60;98.20;;;;;;4881563;29;20568;-81
2023/08/25 01:00:26;;;;;;;1.50;0.90;;;20.60;98.20;;;;;;4874271;29;20954;-80
2023/08/25 01:02:54;;;;;;;1.50;0.90;;;20.60;98.20;;;;;;4884394;29;20930;-81
2023/08/25 01:05:21;;;;;;;1.50;0.90;;;20.60;98.20;;;;;;4873293;29;20470;-80
2023/08/25 01:07:48;;;;;;;1.50;0.90;;;20.60;98.20;;;;;;4882329;29;20493;-80
2023/08/25 01:10:15;;;;;;;1.50;0.90;;;20.60;98.20;;;;;;4867941;29;20486;-80
2023/08/25 01:12:54;;;;;;;1.50;0.90;;;20.50;98.20;;;;;;4880012;29;20489;-80
2023/08/25 01:15:28;;;;;;;1.50;1.00;;;20.50;98.20;;;;;;4873771;29;20561;-80
2023/08/25 01:17:59;;;;;;;1.50;0.90;;;20.50;98.20;;;;;;4881655;29;20488;-81
2023/08/25 01:20:27;;;;;;;1.50;0.90;;;20.40;98.20;;;;;;4867363;29;20605;-81
2023/08/25 01:23:03;;;;;;;1.50;0.90;;;20.40;98.20;;;;;;4882187;29;20492;-80
2023/08/25 01:25:32;;;;;;;1.50;0.90;;;20.30;98.20;;;;;;4874604;29;20461;-80
2023/08/25 01:28:00;;;;;;;1.50;0.90;;;20.30;98.20;;;;;;4882980;29;20876;-81
2023/08/25 01:30:30;;;;;;;1.50;0.90;;;20.30;98.20;;;;;;4874814;29;20493;-80
2023/08/25 01:32:57;;;;;;;1.50;0.90;;;20.30;98.20;;;;;;4885083;29;20492;-80
2023/08/25 01:35:35;;;;;;;1.50;0.90;;;20.30;98.20;;;;;;4873555;29;20471;-80
2023/08/25 01:38:09;;;;;;;1.50;1.00;;;20.30;98.20;;;;;;4882621;29;20509;-80
2023/08/25 01:40:44;;;;;;;1.50;0.90;;;20.20;98.20;;;;;;4873664;29;20870;-81
2023/08/25 01:43:14;;;;;;;1.50;0.90;;;20.20;98.20;;;;;;4887237;29;20493;-81
2023/08/25 01:45:41;;;;;;;1.70;1.20;;;20.10;98.20;;;;;;4874454;29;20471;-80
2023/08/25 01:48:09;;;;;;;1.50;0.90;;;20.10;98.20;;;;;;4883249;29;20583;-80
2023/08/25 01:50:37;;;;;;;1.50;0.90;;;20.10;98.20;;;;;;4901320;23;20505;-80
2023/08/25 01:53:05;;;;;;;1.50;0.90;;;20.10;98.20;;;;;;4873011;29;20486;-78
2023/08/25 01:55:32;;;;;;;1.50;0.90;;;20.10;98.20;;;;;;4872515;29;20832;-78
2023/08/25 01:58:00;;;;;;;1.50;0.90;;;20.10;98.20;;;;;;4874070;29;20618;-79
2023/08/25 02:00:27;;;;;;;1.50;0.90;;;20.10;98.20;;;;;;4869357;29;20730;-79
2023/08/25 02:02:54;;;;;;;1.50;0.90;;;20.10;98.20;;;;;;4878412;29;20491;-79
2023/08/25 02:05:21;;;;;;;1.50;0.90;;;20.10;98.20;;;;;;4871192;29;20465;-78
2023/08/25 02:07:48;;;;;;;1.50;0.90;;;20.10;98.20;;;;;;4872553;29;20483;-79
2023/08/25 02:10:15;;;;;;;1.50;0.90;;;20.20;98.20;;;;;;4873538;29;20477;-79
2023/08/25 02:12:41;;;;;;;1.50;0.90;;;20.20;98.20;;;;;;4871855;29;20494;-78
2023/08/25 02:15:10;;;;;;;1.57;1.00;;;20.20;98.20;;;;;;4869501;29;20471;-78
2023/08/25 02:17:37;;;;;;;1.50;0.90;;;20.20;98.20;;;;;;4869711;29;20981;-78
2023/08/25 02:20:05;;;;;;;1.50;0.90;;;20.20;98.20;;;;;;4877685;29;20474;-78
2023/08/25 02:22:32;;;;;;;1.50;0.90;;;20.20;98.20;;;;;;4882890;29;20497;-78
2023/08/25 02:24:59;;;;;;;1.50;0.90;;;20.10;98.20;;;;;;4878396;29;20963;-78
2023/08/25 02:27:25;;;;;;;1.53;0.90;;;20.10;98.20;;;;;;4880899;29;20481;-78
2023/08/25 02:29:53;;;;;;;1.50;0.90;;;20.10;98.20;;;;;;4868104;29;20483;-78
2023/08/25 02:32:21;;;;;;;1.60;1.10;;;20.10;98.20;;;;;;4853771;29;20551;-78
2023/08/25 02:34:48;;;;;;;1.50;1.00;;;20.10;98.20;;;;;;4860219;29;20483;-79
2023/08/25 02:37:14;;;;;;;1.50;0.90;;;20.00;98.20;;;;;;4863826;29;20493;-77
2023/08/25 02:39:41;;;;;;;1.50;0.90;;;20.00;98.20;;;;;;4875057;29;20458;-77
2023/08/25 02:42:08;;;;;;;1.50;0.90;;;20.00;98.20;;;;;;4872143;29;20494;-77
2023/08/25 02:44:35;;;;;;;1.50;0.90;;;20.00;98.20;;;;;;4875484;29;20472;-76
2023/08/25 02:47:01;;;;;;;1.50;0.90;;;20.00;98.20;;;;;;4868306;29;20490;-77
2023/08/25 02:49:29;;;;;;;1.50;1.00;;;20.00;98.20;;;;;;4875509;29;20486;-77
2023/08/25 02:51:57;;;;;;;1.50;0.90;;;20.00;98.20;;;;;;4871899;29;20501;-76
2023/08/25 02:54:23;;;;;;;1.50;0.90;;;19.90;98.20;;;;;;4876636;29;20470;-77
2023/08/25 02:56:50;;;;;;;1.50;0.90;;;19.90;98.20;;;;;;4870716;29;20489;-77
2023/08/25 02:59:17;;;;;;;1.50;0.90;;;19.90;98.20;;;;;;4866746;29;21175;-77
2023/08/25 03:01:44;;;;;;;1.50;0.90;;;19.90;98.20;;;;;;4870212;29;20497;-78
2023/08/25 03:04:10;;;;;;;1.50;0.90;;;19.90;98.20;;;;;;4876904;29;20479;-78
2023/08/25 03:06:39;;;;;;;1.50;0.90;;;19.90;98.20;;;;;;4871422;29;20489;-78
2023/08/25 03:09:06;;;;;;;1.50;0.90;;;19.80;98.20;;;;;;4862405;29;20500;-76
2023/08/25 03:11:33;;;;;;;1.60;1.10;;;19.80;98.20;;;;;;4848435;29;21392;-77
2023/08/25 03:13:59;;;;;;;1.50;0.90;;;19.80;98.20;;;;;;4871406;29;20467;-78
2023/08/25 03:16:26;;;;;;;1.50;0.90;;;19.80;98.20;;;;;;4861081;29;20506;-77
2023/08/25 03:18:53;;;;;;;1.50;0.90;;;19.80;98.20;;;;;;4873380;29;20467;-77
2023/08/25 03:21:20;;;;;;;1.50;0.90;;;19.80;98.20;;;;;;4854545;29;20928;-77
2023/08/25 03:23:48;;;;;;;1.50;0.90;;;19.80;98.20;;;;;;4868139;29;20483;-76
2023/08/25 03:26:14;;;;;;;1.50;0.90;;;19.80;98.20;;;;;;4851695;29;20502;-77
2023/08/25 03:28:41;;;;;;;1.50;0.90;;;19.80;98.20;;;;;;4867216;29;20526;-76
2023/08/25 03:31:08;;;;;;;1.53;1.00;;;19.70;98.20;;;;;;4849728;29;20490;-78
2023/08/25 03:33:35;;;;;;;1.50;0.90;;;19.70;98.20;;;;;;4866431;29;20769;-77
2023/08/25 03:36:02;;;;;;;1.50;0.90;;;19.70;98.20;;;;;;4854427;29;20471;-76
2023/08/25 03:38:28;;;;;;;1.53;0.93;;;19.60;98.20;;;;;;4879285;29;20471;-79
2023/08/25 03:41:00;;;;;;;1.50;0.90;;;19.60;98.20;;;;;;4848815;29;20503;-76
2023/08/25 03:43:28;;;;;;;1.50;1.00;;;19.60;98.20;;;;;;4868307;29;20480;-76
2023/08/25 03:45:54;;;;;;;1.50;0.90;;;19.50;98.20;;;;;;4849612;29;20487;-76
2023/08/25 03:48:21;;;;;;;1.50;0.90;;;19.50;98.20;;;;;;4872505;29;20464;-76
2023/08/25 03:50:48;;;;;;;1.50;0.90;;;19.50;98.20;;;;;;4840945;29;20488;-77
2023/08/25 03:53:15;;;;;;;1.50;0.90;;;19.50;98.20;;;;;;4868290;29;20859;-77
2023/08/25 03:55:42;;;;;;;1.50;0.90;;;19.50;98.20;;;;;;4857892;29;20501;-76
2023/08/25 03:58:10;;;;;;;1.50;0.90;;;19.50;98.20;;;;;;4861654;29;20879;-76
2023/08/25 04:00:37;;;;;;;1.50;0.90;;;19.50;98.20;;;;;;4856450;29;20853;-77
2023/08/25 04:03:06;;;;;;;1.50;0.90;;;19.50;98.20;;;;;;4859605;29;20483;-76
2023/08/25 04:05:32;;;;;;;1.50;1.00;;;19.50;98.20;;;;;;4857400;29;20503;-76
2023/08/25 04:07:59;;;;;;;1.50;0.90;;;19.60;98.20;;;;;;4860103;29;20493;-79
2023/08/25 04:10:26;;;;;;;1.50;0.90;;;19.60;98.20;;;;;;4869295;29;20501;-78
2023/08/25 04:12:53;;;;;;;1.50;0.90;;;19.60;98.20;;;;;;4868341;29;20489;-79
2023/08/25 04:15:22;;;;;;;1.50;0.90;;;19.60;98.20;;;;;;4864224;29;20880;-78
2023/08/25 04:17:49;;;;;;;1.50;0.90;;;19.60;98.20;;;;;;4867811;29;20497;-79
2023/08/25 04:20:16;;;;;;;1.50;0.90;;;19.60;98.20;;;;;;4863740;29;21231;-79
2023/08/25 04:22:42;;;;;;;1.50;1.00;;;19.70;98.20;;;;;;4855126;29;20578;-77
2023/08/25 04:25:09;;;;;;;1.50;0.90;;;19.70;98.20;;;;;;4847650;29;20843;-78
2023/08/25 04:27:36;;;;;;;1.50;0.90;;;19.70;98.20;;;;;;4847184;29;20539;-78
2023/08/25 04:30:03;;;;;;;1.50;1.00;;;19.70;98.20;;;;;;4837503;29;20517;-78
2023/08/25 04:32:32;;;;;;;1.50;0.90;;;19.70;98.20;;;;;;4849910;29;20512;-79
2023/08/25 04:34:58;;;;;;;1.50;0.90;;;19.70;98.20;;;;;;4859693;29;20475;-77
2023/08/25 04:37:25;;;;;;;1.50;0.90;;;19.80;98.20;;;;;;4861055;29;20487;-78
2023/08/25 04:39:55;;;;;;;1.50;0.90;;;19.80;98.20;;;;;;4865995;29;20888;-79
2023/08/25 04:42:21;;;;;;;1.50;0.90;;;19.80;98.20;;;;;;4862575;29;20982;-78
2023/08/25 04:44:48;;;;;;;1.50;0.90;;;19.80;98.20;;;;;;4857124;29;21003;-78
2023/08/25 04:47:16;;;;;;;1.50;0.90;;;19.80;98.20;;;;;;4857725;29;20537;-79
2023/08/25 04:49:44;;;;;;;1.50;0.90;;;19.80;98.20;;;;;;4854115;29;20575;-76
2023/08/25 04:52:11;;;;;;;1.50;0.90;;;19.80;98.20;;;;;;4855841;29;20803;-76
2023/08/25 04:54:38;;;;;;;1.50;0.90;;;19.80;98.20;;;;;;4859323;29;20467;-76
2023/08/25 04:57:07;;;;;;;1.50;0.90;;;19.80;98.20;;;;;;4854675;29;21088;-76
2023/08/25 04:59:34;;;;;;;1.50;0.90;;;19.80;98.20;;;;;;4863320;29;20495;-79
2023/08/25 05:02:00;;;;;;;1.50;0.90;;;19.80;98.20;;;;;;4854427;29;20941;-78
2023/08/25 05:04:27;;;;;;;1.50;0.90;;;19.80;98.20;;;;;;4861828;29;20502;-77
2023/08/25 05:06:55;;;;;;;1.50;1.00;;;19.80;98.20;;;;;;4853669;29;20853;-78
2023/08/25 05:09:22;;;;;;;1.50;0.90;;;19.70;98.20;;;;;;4857760;29;20596;-77
2023/08/25 05:11:49;;;;;;;1.50;0.90;;;19.70;98.20;;;;;;4849867;29;20555;-76
2023/08/25 05:14:16;;;;;;;1.50;0.90;;;19.70;98.20;;;;;;4861933;29;20479;-76
2023/08/25 05:16:43;;;;;;;1.50;0.90;;;19.70;98.20;;;;;;4853509;29;20783;-78
2023/08/25 05:19:11;;;;;;;4.23;3.67;;;19.80;98.20;;;;;;4863165;29;20486;-76
2023/08/25 05:21:38;;;;;;;1.50;0.90;;;19.70;98.20;;;;;;4842214;29;20499;-75
2023/08/25 05:24:21;;;;;;;1.50;0.90;;;19.80;98.20;;;;;;4852852;29;20658;-76
2023/08/25 05:26:51;;;;;;;1.50;0.90;;;19.70;98.20;;;;;;4842668;29;20574;-77
2023/08/25 05:29:18;;;;;;;1.50;0.90;;;19.80;98.20;;;;;;4853471;29;20495;-76
2023/08/25 05:31:45;;;;;;;1.50;0.90;;;19.70;98.20;;;;;;4844835;29;20678;-77
2023/08/25 05:34:11;;;;;;;1.50;0.90;;;19.80;98.20;;;;;;4857413;29;20468;-79
2023/08/25 05:36:39;;;;;;;1.50;0.90;;;19.80;98.20;;;;;;4843988;29;20770;-78
2023/08/25 05:39:05;;;;;;;1.60;1.27;;;19.90;98.20;;;;;;4862010;29;20468;-77
2023/08/25 05:41:34;;;;;;;1.50;0.90;;;19.90;98.20;;;;;;4839608;29;20517;-78
2023/08/25 05:44:01;;;;;;;1.50;0.90;;;20.00;98.20;;;;;;4857387;29;20471;-78
2023/08/25 05:46:30;;;;;;;1.50;0.90;;;20.00;98.20;;;;;;4841992;29;20582;-78
2023/08/25 05:48:57;;;;;;;1.50;1.00;;;20.00;98.20;;;;;;4858809;29;20956;-76
2023/08/25 05:51:24;;;;;;;1.50;0.90;;;20.00;98.20;;;;;;4848248;29;20483;-78
2023/08/25 05:53:51;;;;;;;1.50;0.90;;;20.00;98.20;;;;;;4858237;29;20480;-76
2023/08/25 05:56:17;;;;;;;1.50;0.90;;;20.00;98.20;;;;;;4846402;29;20869;-76
2023/08/25 05:58:46;;;;;;;1.50;0.90;;;20.00;98.20;;;;;;4863932;29;20697;-76
2023/08/25 06:01:13;;;;;;;1.50;0.90;;;20.10;98.20;;;;;;4845387;29;20508;-76
2023/08/25 06:03:40;;;;;;;1.50;0.97;;;20.10;98.20;;;;;;4858265;29;20484;-77
2023/08/25 06:06:06;;;;;;;1.50;1.07;;;20.10;98.20;;;;;;4846244;29;20482;-77
2023/08/25 06:08:34;;;;;;;1.50;0.90;;;20.10;98.20;;;;;;4857855;29;20468;-77
2023/08/25 06:11:01;;;;;;;1.50;0.90;;;20.10;98.20;;;;;;4846217;29;20502;-77
2023/08/25 06:13:27;;;;;;;1.50;0.90;;;20.10;98.20;;;;;;4877596;29;20466;-78
2023/08/25 06:15:56;;;;;;;1.50;1.00;;;20.20;98.20;;;;;;4856252;29;20493;-78
2023/08/25 06:18:22;;;;;;;1.50;0.90;;;20.20;98.20;;;;;;4871467;29;20875;-76
2023/08/25 06:20:51;;;;;;;1.50;0.90;;;20.20;98.20;;;;;;4846368;29;20502;-79
2023/08/25 06:23:21;;;;;;;1.50;0.90;;;20.30;98.20;;;;;;4865757;29;20467;-78
2023/08/25 06:25:49;;;;;;;1.50;0.90;;;20.40;98.20;;;;;;4847110;28;20502;-76
2023/08/25 06:28:16;;;;;;;1.50;0.90;;;20.40;98.20;;;;;;4869152;29;20476;-78
2023/08/25 06:30:43;;;;;;;1.50;0.90;;;20.50;98.20;;;;;;4856702;29;20556;-78
2023/08/25 06:33:11;;;;;;;1.50;0.90;;;20.50;98.20;;;;;;4860486;29;20830;-77
2023/08/25 06:35:39;;;;;;;1.50;0.90;;;20.60;98.20;;;;;;4858061;29;20603;-76
2023/08/25 06:38:06;;;;;;;1.50;0.90;;;20.60;98.20;;;;;;4869215;29;20490;-77
2023/08/25 06:40:34;;;;;;;1.50;0.90;;;20.70;98.20;;;;;;4849436;29;20482;-77
2023/08/25 06:43:02;;;;;;;1.53;0.90;;;20.80;98.20;;;;;;4862265;29;20498;-76
2023/08/25 06:45:28;;;;;;;1.50;0.90;;;20.90;98.20;;;;;;4855215;29;20515;-78
2023/08/25 06:47:55;;;;;;;1.50;0.90;;;20.90;98.20;;;;;;4864231;29;20493;-77
2023/08/25 06:50:23;;;;;;;1.57;0.90;;;20.90;98.20;;;;;;4853776;29;20491;-77
2023/08/25 06:52:51;;;;;;;1.57;1.00;;;21.00;98.20;;;;;;4856430;29;20485;-78
2023/08/25 06:55:18;;;;;;;1.50;0.90;;;21.10;98.20;;;;;;4848647;29;20610;-77
2023/08/25 06:57:46;;;;;;;1.50;0.90;;;21.30;98.20;;;;;;4858427;29;20491;-78
2023/08/25 07:00:14;;;;;;;1.50;0.90;;;21.50;98.20;;;;;;4851137;29;20475;-78
2023/08/25 07:02:42;;;;;;;1.50;0.90;;;21.70;98.20;;;;;;4859275;29;20491;-80
2023/08/25 07:05:10;;;;;;;1.50;0.90;;;21.80;98.20;;;;;;4852277;29;20921;-76
2023/08/25 07:07:39;;;;;;;1.50;0.90;;;21.90;98.20;;;;;;4853804;29;20483;-77
2023/08/25 07:10:06;;;;;;;1.53;1.00;;;21.90;98.20;;;;;;4851516;29;20519;-77
2023/08/25 07:12:33;;;;;;;1.50;0.90;;;22.00;98.20;;;;;;4856340;29;20895;-77
2023/08/25 07:15:00;;;;;;;1.50;0.90;;;22.00;98.20;;;;;;4852291;29;20467;-77
2023/08/25 07:17:29;;;;;;;1.50;0.90;;;21.90;98.20;;;;;;4853184;29;20486;-77
2023/08/25 07:19:56;;;;;;;1.53;0.90;;;21.90;98.20;;;;;;4856099;29;20480;-78
2023/08/25 07:22:23;;;;;;;1.60;1.27;;;21.90;98.20;;;;;;4852941;29;21233;-78
2023/08/25 07:24:53;;;;;;;1.50;0.90;;;21.90;98.20;;;;;;4855809;29;20508;-78
2023/08/25 07:27:20;;;;;;;1.50;0.90;;;21.80;98.20;;;;;;4851628;29;20494;-79
2023/08/25 07:29:47;;;;;;;1.50;0.97;;;21.80;98.20;;;;;;4854691;29;20838;-80
2023/08/25 07:32:13;;;;;;;1.50;0.90;;;21.80;98.20;;;;;;4850493;29;20495;-78
2023/08/25 07:34:44;;;;;;;1.57;1.00;;;21.70;98.20;;;;;;4851924;29;21247;-78
2023/08/25 07:37:11;;;;;;;1.50;0.90;;;21.70;98.20;;;;;;4849453;29;20487;-78
2023/08/25 07:39:39;;;;;;;1.50;0.90;;;21.70;98.20;;;;;;4850566;29;20483;-78
2023/08/25 07:42:10;;;;;;;1.50;0.90;;;21.70;98.20;;;;;;4851540;29;20538;-81
2023/08/25 07:44:37;;;;;;;1.50;1.10;;;21.70;98.20;;;;;;4851987;29;20476;-78
2023/08/25 07:47:05;;;;;;;1.50;0.90;;;21.70;98.20;;;;;;4851653;29;21091;-79
2023/08/25 07:49:31;;;;;;;1.50;0.90;;;21.60;98.20;;;;;;4854624;29;20570;-79
2023/08/25 07:51:58;;;;;;;1.50;1.00;;;21.60;98.20;;;;;;4855594;29;20490;-80
2023/08/25 07:54:26;;;;;;;1.50;0.90;;;21.60;98.20;;;;;;4859853;29;20527;-79
2023/08/25 07:56:52;;;;;;;1.50;0.90;;;21.60;98.20;;;;;;4853420;29;20575;-80
2023/08/25 07:59:21;;;;;;;1.50;0.90;;;21.50;98.20;;;;;;4853668;29;20478;-80
2023/08/25 08:01:47;;;;;;;1.50;0.90;;;21.50;98.20;;;;;;4846056;29;21034;-82
2023/08/25 08:04:14;;;;;;;1.50;0.90;;;21.40;98.20;;;;;;4853028;29;20978;-78
2023/08/25 08:06:41;;;;;;;1.50;0.90;;;21.30;98.20;;;;;;4842803;29;20487;-77
2023/08/25 08:09:08;;;;;;;1.50;0.90;;;21.20;98.20;;;;;;4854274;29;20569;-80
2023/08/25 08:11:36;;;;;;;1.50;0.97;;;21.00;98.20;;;;;;4844392;29;20586;-82
2023/08/25 08:20:55;;;;;;;1.53;0.90;;;21.00;98.20;;;;;;4736642;29;20508;-85
2023/08/25 08:23:22;;;;;;;1.50;0.90;;;20.90;98.20;;;;;;4864561;29;20467;-83
2023/08/25 08:25:50;;;;;;;1.50;0.90;;;20.90;98.20;;;;;;4846882;29;20965;-84
2023/08/25 08:28:18;;;;;;;1.50;0.90;;;20.80;98.20;;;;;;4864702;29;20529;-83
2023/08/25 08:34:14;;;;;;;1.50;0.90;;;20.80;98.20;;;;;;4842239;29;20470;-84
2023/08/25 08:36:42;;;;;;;1.50;0.90;;;20.80;98.20;;;;;;4880432;29;20525;-83
2023/08/25 08:41:57;;;;;;;1.53;0.90;;;20.70;98.20;;;;;;4871866;29;20922;-85
2023/08/25 08:47:47;;;;;;;1.50;0.90;;;20.60;98.20;;;;;;4767587;29;20486;-86
2023/08/25 08:50:15;;;;;;;1.50;0.90;;;20.50;98.20;;;;;;4883650;29;20496;-85
2023/08/25 08:52:46;;;;;;;1.50;0.90;;;20.40;98.20;;;;;;4870377;29;20554;-84
2023/08/25 08:55:15;;;;;;;1.50;0.90;;;20.50;98.20;;;;;;4875851;29;21141;-84
2023/08/25 08:57:44;;;;;;;1.50;0.90;;;20.50;98.20;;;;;;4872512;29;20617;-86
2023/08/25 09:03:35;;;;;;;1.53;1.10;;;20.60;98.20;;;;;;4863689;29;20536;-82
2023/08/25 09:06:04;;;;;;;1.50;0.90;;;20.70;98.20;;;;;;4877293;29;20466;-85
2023/08/25 09:08:35;;;;;;;1.50;0.90;;;20.80;98.20;;;;;;4878971;29;20461;-83
2023/08/25 09:11:17;;;;;;;1.50;0.90;;;20.80;98.20;;;;;;4874534;29;20501;-82
2023/08/25 09:13:54;;;;;;;1.50;0.90;;;20.90;98.20;;;;;;4875545;29;20497;-83
2023/08/25 09:16:23;;;;;;;1.50;0.90;;;21.10;98.20;;;;;;4873661;29;20492;-83
2023/08/25 09:18:59;;;;;;;1.50;0.90;;;21.30;98.20;;;;;;4879355;29;20831;-82
2023/08/25 09:21:27;;;;;;;1.50;0.90;;;21.50;98.20;;;;;;4874190;29;20902;-82
2023/08/25 09:23:58;;;;;;;1.60;1.37;;;21.60;98.20;;;;;;4885324;29;20851;-82
2023/08/25 09:26:27;;;;;;;1.50;0.90;;;21.70;98.20;;;;;;4868118;29;20528;-82
2023/08/25 09:28:54;;;;;;;1.50;0.90;;;21.80;98.20;;;;;;4880301;29;20847;-82
2023/08/25 09:31:22;;;;;;;1.57;1.00;;;21.80;98.20;;;;;;4867414;29;20621;-81
2023/08/25 09:33:52;;;;;;;1.50;0.90;;;21.70;98.20;;;;;;4881077;29;20463;-80
2023/08/25 09:36:19;;;;;;;1.50;0.90;;;21.60;98.20;;;;;;4869054;29;20480;-81
2023/08/25 09:38:47;;;;;;;1.70;1.10;;;21.50;98.20;;;;;;4881719;29;20470;-80
2023/08/25 09:41:24;;;;;;;1.57;1.00;;;21.50;98.20;;;;;;4870059;29;20532;-81
2023/08/25 09:43:51;;;;;;;1.50;0.90;;;21.50;98.20;;;;;;4880056;29;20497;-80
2023/08/25 09:46:30;;;;;;;1.50;0.90;;;21.50;98.20;;;;;;4863894;29;20611;-80
2023/08/25 09:49:02;;;;;;;1.50;0.90;;;21.50;98.20;;;;;;4880717;29;20495;-78
2023/08/25 09:51:35;;;;;;;1.50;0.90;;;21.50;98.20;;;;;;4872285;29;20589;-79
2023/08/25 09:54:07;;;;;;;1.53;0.90;;;21.50;98.20;;;;;;4878870;29;20486;-79
2023/08/25 09:56:36;;;;;;;1.50;0.90;;;21.40;98.20;;;;;;4874035;29;20540;-81
2023/08/25 09:59:04;;;;;;;1.50;0.90;;;21.40;98.20;;;;;;4879246;29;20473;-81
2023/08/25 10:01:32;;;;;;;1.50;0.90;;;21.40;98.20;;;;;;4872063;29;20529;-82
2023/08/25 10:03:59;;;;;;;1.50;0.90;;;21.40;98.20;;;;;;4880269;29;20470;-81
2023/08/25 10:06:29;;;;;;;1.50;0.90;;;21.40;98.20;;;;;;4872520;29;20521;-81
2023/08/25 10:08:56;;;;;;;1.50;0.90;;;21.40;98.20;;;;;;4877044;29;20489;-82
2023/08/25 10:11:26;;;;;;;1.50;0.90;;;21.40;98.20;;;;;;4871791;29;20521;-79
2023/08/25 10:13:56;;;;;;;1.50;0.90;;;21.40;98.20;;;;;;4877912;29;20545;-80
2023/08/25 10:16:26;;;;;;;1.50;1.00;;;21.40;98.20;;;;;;4872230;29;20481;-79
2023/08/25 10:18:57;;;;;;;1.50;0.90;;;21.40;98.20;;;;;;4883874;29;20493;-79
2023/08/25 10:21:30;;;;;;;1.50;0.90;;;21.30;98.20;;;;;;4875368;29;20496;-80
2023/08/25 10:24:00;;;;;;;1.50;0.90;;;21.30;98.20;;;;;;4885973;29;20839;-82
2023/08/25 10:26:28;;;;;;;1.50;0.90;;;21.30;98.20;;;;;;4876498;29;20496;-83
2023/08/25 10:28:58;;;;;;;1.50;0.90;;;21.10;98.20;;;;;;4878817;29;20850;-83
2023/08/25 10:31:25;;;;;;;1.50;0.90;;;21.10;98.20;;;;;;4874499;29;20482;-83
2023/08/25 10:33:53;;;;;;;1.50;0.90;;;21.10;98.20;;;;;;4889690;29;20473;-82
2023/08/25 10:36:21;;;;;;;1.50;0.90;;;21.00;98.20;;;;;;4872518;29;20573;-84
2023/08/25 10:39:18;;;;;;;;;;;;;;;;;;;;;
2023/08/25 10:41:58;;;;;;;1.50;0.90;;;21.00;98.20;;;;;;4873957;29;20496;-83
2023/08/25 10:44:42;;;;;;;1.50;0.90;;;20.90;98.20;;;;;;4887828;29;20580;-83
2023/08/25 10:47:12;;;;;;;1.50;0.90;;;20.70;98.20;;;;;;4880267;29;20489;-84
2023/08/25 10:49:56;;;;;;;1.50;0.90;;;20.60;98.20;;;;;;4887162;29;20885;-86
2023/08/25 10:56:30;;;;;;;1.50;0.90;;;20.50;98.20;;;;;;4860646;29;20546;-86
2023/08/25 10:59:03;;;;;;;1.50;0.90;;;20.50;98.20;;;;;;4879092;29;20474;-85
2023/08/25 11:02:09;;;;;;;1.50;0.90;;;20.40;98.20;;;;;;4876934;29;21866;-85
2023/08/25 11:04:37;;;;;;;1.50;0.90;;;20.40;98.20;;;;;;4885981;29;20502;-83
2023/08/25 11:07:30;;;;;;;1.50;0.90;;;20.50;98.20;;;;;;4874349;29;20494;-83
2023/08/25 11:13:28;;;;;;;1.50;0.90;;;20.60;98.20;;;;;;4869301;26;20627;-84
2023/08/25 11:16:00;;;;;;;1.50;0.90;;;20.60;98.20;;;;;;4919480;28;20959;-83
2023/08/25 11:18:34;;;;;;;1.50;0.90;;;20.70;98.20;;;;;;4917441;29;20479;-82
2023/08/25 11:24:23;;;;;;;1.53;0.90;;;20.90;98.20;;;;;;4832442;29;20475;-83
2023/08/25 11:27:48;;;;;;;1.50;0.90;;;21.00;98.20;;;;;;4902106;29;20509;-84
2023/08/25 11:30:20;;;;;;;1.50;0.90;;;21.10;98.20;;;;;;4910179;29;20476;-83
2023/08/25 11:32:48;;;;;;;1.50;0.90;;;21.10;98.20;;;;;;4908775;29;20883;-83
2023/08/25 11:35:18;;;;;;;1.50;0.90;;;21.10;98.20;;;;;;4924327;29;20467;-84
2023/08/25 11:37:45;;;;;;;1.50;0.90;;;21.20;98.20;;;;;;4915502;28;20763;-83
2023/08/25 11:40:13;;;;;;;1.50;0.90;;;21.20;98.20;;;;;;4917691;29;20656;-84
2023/08/25 11:43:27;;;;;;;1.50;0.90;;;21.30;98.20;;;;;;4903589;29;20521;-84
2023/08/25 11:45:59;;;;;;;2.90;2.50;;;21.30;98.20;;;;;;4910834;28;20464;-84
2023/08/25 11:48:28;;;;;;;1.50;0.90;;;21.40;98.20;;;;;;4923574;29;20466;-83
2023/08/25 11:57:34;;;;;;;1.53;0.90;;;21.90;98.20;;;;;;4899264;29;20503;-83
2023/08/25 12:03:25;;;;;;;1.50;0.90;;;22.40;98.20;;;;;;4963415;23;20888;-83
2023/08/25 12:05:52;;;;;;;1.60;1.00;;;22.50;98.20;;;;;;4932496;28;20911;-83
2023/08/25 12:08:21;;;;;;;1.50;0.90;;;22.50;98.20;;;;;;4950114;28;20463;-83
2023/08/25 12:10:48;;;;;;;1.53;0.90;;;22.70;98.20;;;;;;4938785;28;20491;-83
2023/08/25 12:13:24;;;;;;;1.50;0.90;;;22.90;98.20;;;;;;4951946;28;20495;-83
2023/08/25 12:15:54;;;;;;;1.57;0.90;;;23.10;98.20;;;;;;4936436;28;20553;-82
2023/08/25 12:18:22;;;;;;;1.53;0.90;;;23.30;98.20;;;;;;4941281;28;20981;-82
2023/08/25 12:20:49;;;;;;;1.53;0.90;;;23.60;98.20;;;;;;4936736;28;20479;-80
2023/08/25 12:23:16;;;;;;;1.57;0.90;;;23.80;98.20;;;;;;4946334;28;20471;-81
2023/08/25 12:25:46;;;;;;;3.30;2.13;;;24.10;98.20;;;;;;4944148;28;20481;-81
2023/08/25 12:28:14;;;;;;;1.53;0.87;;;24.20;98.20;;;;;;4927649;28;20493;-80
2023/08/25 12:30:41;;;;;;;1.50;0.83;;;24.30;98.20;;;;;;4943940;28;20474;-81
2023/08/25 12:33:09;;;;;;;3.60;2.03;;;24.20;98.20;;;;;;4936426;28;20482;-80
2023/08/25 12:35:36;;;;;;;1.53;0.90;;;24.10;98.20;;;;;;4946253;28;20463;-80
2023/08/25 12:38:03;;;;;;;1.60;0.93;;;24.00;98.20;;;;;;4937961;28;20884;-80
2023/08/25 12:40:30;;;;;;;1.50;0.87;;;23.90;98.20;;;;;;4942580;28;20473;-80
2023/08/25 12:42:58;;;;;;;1.50;0.90;;;23.80;98.20;;;;;;4936767;28;20659;-80
2023/08/25 12:45:27;;;;;;;1.50;0.90;;;23.70;98.20;;;;;;4948720;28;20506;-81
2023/08/25 12:47:57;;;;;;;1.53;0.90;;;23.50;98.20;;;;;;4940952;28;20483;-81
2023/08/25 12:50:24;;;;;;;1.53;0.90;;;23.30;98.20;;;;;;4944389;28;20987;-80
2023/08/25 12:52:51;;;;;;;1.50;0.83;;;23.10;98.20;;;;;;4937608;28;20479;-80
2023/08/25 12:55:20;;;;;;;1.50;0.90;;;23.00;98.20;;;;;;4944987;28;20474;-80
2023/08/25 12:57:50;;;;;;;1.50;0.90;;;23.00;98.20;;;;;;4938259;28;20569;-81
2023/08/25 13:00:20;;;;;;;1.53;0.90;;;22.90;98.20;;;;;;4943701;28;20469;-81
2023/08/25 13:02:48;;;;;;;1.50;0.90;;;22.90;98.20;;;;;;4942346;28;20617;-81
2023/08/25 13:05:28;;;;;;;1.50;0.90;;;22.80;98.20;;;;;;4947756;28;20809;-85
2023/08/25 13:07:58;;;;;;;2.90;2.60;;;22.70;98.20;;;;;;4929197;28;20487;-83
2023/08/25 13:13:39;;;;;;;1.50;0.90;;;22.60;98.20;;;;;;4908001;28;20475;-86
2023/08/25 13:16:10;;;;;;;1.50;0.90;;;22.50;98.20;;;;;;4938344;28;20467;-87
2023/08/25 13:18:37;;;;;;;1.50;0.90;;;22.60;98.20;;;;;;4945415;28;20471;-84
2023/08/25 13:25:18;;;;;;;1.50;0.90;;;23.00;98.20;;;;;;4921792;28;20528;-85
2023/08/25 13:27:51;;;;;;;1.50;0.80;;;23.40;98.20;;;;;;4939189;28;20568;-83
2023/08/25 13:32:54;;;;;;;1.50;0.90;;;23.40;98.20;;;;;;5158204;23;21220;-83
2023/08/25 13:35:27;;;;;;;1.53;0.97;;;23.40;98.20;;;;;;4952306;28;20565;-84
2023/08/25 13:37:55;;;;;;;1.57;0.90;;;23.50;98.20;;;;;;4936365;28;20567;-82
2023/08/25 13:40:23;;;;;;;1.50;0.90;;;23.50;98.20;;;;;;4946830;28;20481;-80
2023/08/25 13:42:52;;;;;;;1.50;0.90;;;23.60;98.20;;;;;;4916586;29;20487;-80
2023/08/25 13:45:19;;;;;;;1.50;0.90;;;23.80;98.20;;;;;;4927617;29;20470;-82
2023/08/25 13:47:46;;;;;;;1.50;0.90;;;23.90;98.20;;;;;;4901168;29;20712;-81